sensor_id;sensor_type;location;lat;lon;timestamp;P1;durP1;ratioP1;P2;durP2;ratioP2
81221;SDS011;70691;52.492;13.420;2023-10-13T00:01:30;15.50;;;5.07;;
81221;SDS011;70691;52.492;13.420;2023-10-13T00:03:55;8.98;;;3.50;;
81221;SDS011;70691;52.492;13.420;2023-10-13T00:06:21;13.48;;;3.97;;
81221;SDS011;70691;52.492;13.420;2023-10-13T00:08:46;8.68;;;4.28;;
81221;SDS011;70691;52.492;13.420;2023-10-13T00:11:13;9.63;;;4.60;;
81221;SDS011;70691;52.492;13.420;2023-10-13T00:13:39;10.70;;;3.75;;
81221;SDS011;70691;52.492;13.420;2023-10-13T00:16:08;5.75;;;3.25;;
81221;SDS011;70691;52.492;13.420;2023-10-13T00:18:35;12.02;;;3.63;;
81221;SDS011;70691;52.492;13.420;2023-10-13T00:21:07;6.63;;;2.88;;
81221;SDS011;70691;52.492;13.420;2023-10-13T00:23:40;7.63;;;3.28;;
81221;SDS011;70691;52.492;13.420;2023-10-13T00:26:23;7.07;;;3.85;;
81221;SDS011;70691;52.492;13.420;2023-10-13T00:28:52;7.70;;;2.53;;
81221;SDS011;70691;52.492;13.420;2023-10-13T00:31:41;8.02;;;2.53;;
81221;SDS011;70691;52.492;13.420;2023-10-13T00:34:11;8.60;;;3.55;;
81221;SDS011;70691;52.492;13.420;2023-10-13T00:36:43;6.68;;;2.17;;
81221;SDS011;70691;52.492;13.420;2023-10-13T00:39:35;5.65;;;2.75;;
81221;SDS011;70691;52.492;13.420;2023-10-13T00:42:04;6.72;;;2.65;;
81221;SDS011;70691;52.492;13.420;2023-10-13T00:44:42;12.85;;;3.35;;
81221;SDS011;70691;52.492;13.420;2023-10-13T00:47:13;7.72;;;2.85;;
81221;SDS011;70691;52.492;13.420;2023-10-13T00:49:44;9.05;;;4.85;;
81221;SDS011;70691;52.492;13.420;2023-10-13T00:52:12;11.02;;;5.43;;
81221;SDS011;70691;52.492;13.420;2023-10-13T00:54:40;6.95;;;3.47;;
81221;SDS011;70691;52.492;13.420;2023-10-13T00:57:12;8.32;;;3.45;;
81221;SDS011;70691;52.492;13.420;2023-10-13T00:59:59;8.02;;;3.00;;
81221;SDS011;70691;52.492;13.420;2023-10-13T01:02:37;11.93;;;3.40;;
81221;SDS011;70691;52.492;13.420;2023-10-13T01:05:04;8.52;;;3.50;;
81221;SDS011;70691;52.492;13.420;2023-10-13T01:07:34;10.32;;;3.45;;
81221;SDS011;70691;52.492;13.420;2023-10-13T01:10:02;9.32;;;3.65;;
81221;SDS011;70691;52.492;13.420;2023-10-13T01:12:29;7.55;;;3.17;;
81221;SDS011;70691;52.492;13.420;2023-10-13T01:14:56;7.10;;;3.72;;
81221;SDS011;70691;52.492;13.420;2023-10-13T01:17:22;5.88;;;3.72;;
81221;SDS011;70691;52.492;13.420;2023-10-13T01:19:49;9.20;;;3.58;;
81221;SDS011;70691;52.492;13.420;2023-10-13T01:22:14;9.02;;;3.03;;
81221;SDS011;70691;52.492;13.420;2023-10-13T01:24:40;8.57;;;2.78;;
81221;SDS011;70691;52.492;13.420;2023-10-13T01:27:06;7.93;;;3.53;;
81221;SDS011;70691;52.492;13.420;2023-10-13T01:29:50;6.45;;;2.90;;
81221;SDS011;70691;52.492;13.420;2023-10-13T01:32:23;8.30;;;3.05;;
81221;SDS011;70691;52.492;13.420;2023-10-13T01:34:49;9.75;;;3.97;;
81221;SDS011;70691;52.492;13.420;2023-10-13T01:37:20;10.90;;;4.60;;
81221;SDS011;70691;52.492;13.420;2023-10-13T01:39:46;8.45;;;4.15;;
81221;SDS011;70691;52.492;13.420;2023-10-13T01:42:14;8.60;;;5.00;;
81221;SDS011;70691;52.492;13.420;2023-10-13T01:44:44;9.57;;;4.28;;
81221;SDS011;70691;52.492;13.420;2023-10-13T01:47:10;11.75;;;4.25;;
81221;SDS011;70691;52.492;13.420;2023-10-13T01:49:37;10.85;;;3.65;;
81221;SDS011;70691;52.492;13.420;2023-10-13T01:54:37;7.60;;;3.70;;
81221;SDS011;70691;52.492;13.420;2023-10-13T01:57:06;10.60;;;4.57;;
81221;SDS011;70691;52.492;13.420;2023-10-13T01:59:32;16.30;;;4.35;;
81221;SDS011;70691;52.492;13.420;2023-10-13T02:01:58;11.25;;;5.00;;
81221;SDS011;70691;52.492;13.420;2023-10-13T02:04:26;9.45;;;4.28;;
81221;SDS011;70691;52.492;13.420;2023-10-13T02:06:53;8.52;;;4.70;;
81221;SDS011;70691;52.492;13.420;2023-10-13T02:09:21;11.45;;;4.55;;
81221;SDS011;70691;52.492;13.420;2023-10-13T02:11:54;12.18;;;5.10;;
81221;SDS011;70691;52.492;13.420;2023-10-13T02:14:23;8.10;;;4.60;;
81221;SDS011;70691;52.492;13.420;2023-10-13T02:16:50;10.10;;;5.35;;
81221;SDS011;70691;52.492;13.420;2023-10-13T02:19:20;14.88;;;5.57;;
81221;SDS011;70691;52.492;13.420;2023-10-13T02:21:47;11.90;;;5.07;;
81221;SDS011;70691;52.492;13.420;2023-10-13T02:24:23;17.67;;;5.25;;
81221;SDS011;70691;52.492;13.420;2023-10-13T02:26:54;10.07;;;5.15;;
81221;SDS011;70691;52.492;13.420;2023-10-13T02:29:21;11.52;;;6.47;;
81221;SDS011;70691;52.492;13.420;2023-10-13T02:31:47;14.75;;;5.93;;
81221;SDS011;70691;52.492;13.420;2023-10-13T02:34:20;12.15;;;5.60;;
81221;SDS011;70691;52.492;13.420;2023-10-13T02:36:47;10.65;;;5.57;;
81221;SDS011;70691;52.492;13.420;2023-10-13T02:39:14;15.55;;;7.13;;
81221;SDS011;70691;52.492;13.420;2023-10-13T02:41:41;14.57;;;6.28;;
81221;SDS011;70691;52.492;13.420;2023-10-13T02:44:13;12.43;;;5.68;;
81221;SDS011;70691;52.492;13.420;2023-10-13T02:46:51;9.73;;;4.47;;
81221;SDS011;70691;52.492;13.420;2023-10-13T02:49:20;10.00;;;5.60;;
81221;SDS011;70691;52.492;13.420;2023-10-13T02:51:47;15.68;;;6.82;;
81221;SDS011;70691;52.492;13.420;2023-10-13T02:54:12;15.63;;;7.13;;
81221;SDS011;70691;52.492;13.420;2023-10-13T02:56:43;14.25;;;7.20;;
81221;SDS011;70691;52.492;13.420;2023-10-13T02:59:21;10.10;;;6.28;;
81221;SDS011;70691;52.492;13.420;2023-10-13T03:02:02;14.25;;;5.43;;
81221;SDS011;70691;52.492;13.420;2023-10-13T03:04:50;11.25;;;6.65;;
81221;SDS011;70691;52.492;13.420;2023-10-13T03:07:17;12.75;;;6.03;;
81221;SDS011;70691;52.492;13.420;2023-10-13T03:09:51;14.07;;;5.85;;
81221;SDS011;70691;52.492;13.420;2023-10-13T03:12:17;14.73;;;6.53;;
81221;SDS011;70691;52.492;13.420;2023-10-13T03:14:44;14.48;;;6.05;;
81221;SDS011;70691;52.492;13.420;2023-10-13T03:17:13;12.90;;;6.75;;
81221;SDS011;70691;52.492;13.420;2023-10-13T03:19:43;11.23;;;5.63;;
81221;SDS011;70691;52.492;13.420;2023-10-13T03:22:14;12.23;;;6.30;;
81221;SDS011;70691;52.492;13.420;2023-10-13T03:24:41;15.90;;;6.75;;
81221;SDS011;70691;52.492;13.420;2023-10-13T03:29:42;14.80;;;6.80;;
81221;SDS011;70691;52.492;13.420;2023-10-13T03:32:16;13.57;;;7.78;;
81221;SDS011;70691;52.492;13.420;2023-10-13T03:34:42;13.07;;;6.50;;
81221;SDS011;70691;52.492;13.420;2023-10-13T03:37:24;13.60;;;7.40;;
81221;SDS011;70691;52.492;13.420;2023-10-13T03:40:11;16.80;;;7.22;;
81221;SDS011;70691;52.492;13.420;2023-10-13T03:42:49;15.95;;;6.65;;
81221;SDS011;70691;52.492;13.420;2023-10-13T03:45:44;14.05;;;7.88;;
81221;SDS011;70691;52.492;13.420;2023-10-13T03:48:16;14.98;;;7.28;;
81221;SDS011;70691;52.492;13.420;2023-10-13T03:50:52;17.48;;;8.18;;
81221;SDS011;70691;52.492;13.420;2023-10-13T03:53:31;12.60;;;7.50;;
81221;SDS011;70691;52.492;13.420;2023-10-13T03:56:00;19.48;;;7.75;;
81221;SDS011;70691;52.492;13.420;2023-10-13T03:58:36;21.30;;;7.97;;
81221;SDS011;70691;52.492;13.420;2023-10-13T04:01:26;13.77;;;7.43;;
81221;SDS011;70691;52.492;13.420;2023-10-13T04:04:12;18.75;;;7.70;;
81221;SDS011;70691;52.492;13.420;2023-10-13T04:09:34;18.52;;;8.32;;
81221;SDS011;70691;52.492;13.420;2023-10-13T04:12:02;13.63;;;7.80;;
81221;SDS011;70691;52.492;13.420;2023-10-13T04:14:29;22.33;;;9.00;;
81221;SDS011;70691;52.492;13.420;2023-10-13T04:17:18;18.23;;;9.43;;
81221;SDS011;70691;52.492;13.420;2023-10-13T04:19:50;26.25;;;9.82;;
81221;SDS011;70691;52.492;13.420;2023-10-13T04:22:32;17.30;;;9.13;;
81221;SDS011;70691;52.492;13.420;2023-10-13T04:25:27;20.03;;;9.57;;
81221;SDS011;70691;52.492;13.420;2023-10-13T04:28:09;16.55;;;9.68;;
81221;SDS011;70691;52.492;13.420;2023-10-13T04:33:23;19.80;;;8.88;;
81221;SDS011;70691;52.492;13.420;2023-10-13T04:38:54;19.92;;;9.85;;
81221;SDS011;70691;52.492;13.420;2023-10-13T04:41:27;21.55;;;10.60;;
81221;SDS011;70691;52.492;13.420;2023-10-13T04:44:16;16.95;;;10.93;;
81221;SDS011;70691;52.492;13.420;2023-10-13T04:46:54;19.23;;;10.18;;
81221;SDS011;70691;52.492;13.420;2023-10-13T04:49:28;19.17;;;10.13;;
81221;SDS011;70691;52.492;13.420;2023-10-13T04:52:14;17.98;;;10.60;;
81221;SDS011;70691;52.492;13.420;2023-10-13T04:55:00;21.77;;;11.50;;
81221;SDS011;70691;52.492;13.420;2023-10-13T04:57:43;17.08;;;10.48;;
81221;SDS011;70691;52.492;13.420;2023-10-13T05:00:14;30.40;;;11.30;;
81221;SDS011;70691;52.492;13.420;2023-10-13T05:02:46;22.42;;;10.93;;
81221;SDS011;70691;52.492;13.420;2023-10-13T05:05:31;18.83;;;10.65;;
81221;SDS011;70691;52.492;13.420;2023-10-13T05:07:56;27.48;;;12.18;;
81221;SDS011;70691;52.492;13.420;2023-10-13T05:10:40;18.02;;;10.32;;
81221;SDS011;70691;52.492;13.420;2023-10-13T05:13:24;20.17;;;10.80;;
81221;SDS011;70691;52.492;13.420;2023-10-13T05:16:08;17.05;;;11.07;;
81221;SDS011;70691;52.492;13.420;2023-10-13T05:18:52;20.42;;;10.90;;
81221;SDS011;70691;52.492;13.420;2023-10-13T05:21:37;21.88;;;10.02;;
81221;SDS011;70691;52.492;13.420;2023-10-13T05:24:21;19.80;;;10.25;;
81221;SDS011;70691;52.492;13.420;2023-10-13T05:27:05;17.80;;;10.57;;
81221;SDS011;70691;52.492;13.420;2023-10-13T05:29:49;17.02;;;10.02;;
81221;SDS011;70691;52.492;13.420;2023-10-13T05:32:33;22.63;;;12.18;;
81221;SDS011;70691;52.492;13.420;2023-10-13T05:35:19;15.73;;;9.38;;
81221;SDS011;70691;52.492;13.420;2023-10-13T05:38:04;19.80;;;10.75;;
81221;SDS011;70691;52.492;13.420;2023-10-13T05:43:42;16.08;;;11.13;;
81221;SDS011;70691;52.492;13.420;2023-10-13T05:46:26;14.75;;;9.07;;
81221;SDS011;70691;52.492;13.420;2023-10-13T05:48:52;19.08;;;10.85;;
81221;SDS011;70691;52.492;13.420;2023-10-13T05:51:28;17.08;;;9.18;;
81221;SDS011;70691;52.492;13.420;2023-10-13T05:54:01;20.05;;;11.57;;
81221;SDS011;70691;52.492;13.420;2023-10-13T05:56:46;17.80;;;10.63;;
81221;SDS011;70691;52.492;13.420;2023-10-13T05:59:33;18.15;;;9.32;;
81221;SDS011;70691;52.492;13.420;2023-10-13T06:02:38;15.73;;;9.57;;
81221;SDS011;70691;52.492;13.420;2023-10-13T06:05:22;20.95;;;11.68;;
81221;SDS011;70691;52.492;13.420;2023-10-13T06:08:07;49.35;;;14.30;;
81221;SDS011;70691;52.492;13.420;2023-10-13T06:11:00;60.55;;;14.85;;
81221;SDS011;70691;52.492;13.420;2023-10-13T06:13:45;36.50;;;12.23;;
81221;SDS011;70691;52.492;13.420;2023-10-13T06:16:30;41.83;;;13.57;;
81221;SDS011;70691;52.492;13.420;2023-10-13T06:19:14;32.95;;;12.10;;
81221;SDS011;70691;52.492;13.420;2023-10-13T06:21:58;23.10;;;9.10;;
81221;SDS011;70691;52.492;13.420;2023-10-13T06:24:43;14.90;;;7.97;;
81221;SDS011;70691;52.492;13.420;2023-10-13T06:27:27;15.90;;;9.77;;
81221;SDS011;70691;52.492;13.420;2023-10-13T06:30:12;41.63;;;12.88;;
81221;SDS011;70691;52.492;13.420;2023-10-13T06:32:38;19.65;;;9.23;;
81221;SDS011;70691;52.492;13.420;2023-10-13T06:35:05;18.10;;;8.95;;
81221;SDS011;70691;52.492;13.420;2023-10-13T06:37:34;12.67;;;8.43;;
81221;SDS011;70691;52.492;13.420;2023-10-13T06:40:10;17.65;;;9.45;;
81221;SDS011;70691;52.492;13.420;2023-10-13T06:43:12;16.48;;;8.60;;
81221;SDS011;70691;52.492;13.420;2023-10-13T06:45:42;16.38;;;9.43;;
81221;SDS011;70691;52.492;13.420;2023-10-13T06:48:15;31.92;;;10.80;;
81221;SDS011;70691;52.492;13.420;2023-10-13T06:50:52;35.75;;;10.90;;
81221;SDS011;70691;52.492;13.420;2023-10-13T06:53:20;19.02;;;8.88;;
81221;SDS011;70691;52.492;13.420;2023-10-13T06:55:47;20.27;;;9.25;;
81221;SDS011;70691;52.492;13.420;2023-10-13T06:58:14;21.17;;;9.75;;
81221;SDS011;70691;52.492;13.420;2023-10-13T07:00:42;18.35;;;9.48;;
81221;SDS011;70691;52.492;13.420;2023-10-13T07:03:18;14.48;;;8.63;;
81221;SDS011;70691;52.492;13.420;2023-10-13T07:05:44;19.50;;;8.25;;
81221;SDS011;70691;52.492;13.420;2023-10-13T07:08:14;16.58;;;7.85;;
81221;SDS011;70691;52.492;13.420;2023-10-13T07:10:51;15.88;;;8.23;;
81221;SDS011;70691;52.492;13.420;2023-10-13T07:13:27;12.68;;;7.10;;
81221;SDS011;70691;52.492;13.420;2023-10-13T07:15:54;14.13;;;7.03;;
81221;SDS011;70691;52.492;13.420;2023-10-13T07:18:25;8.93;;;6.03;;
81221;SDS011;70691;52.492;13.420;2023-10-13T07:20:51;18.52;;;7.60;;
81221;SDS011;70691;52.492;13.420;2023-10-13T07:23:22;13.02;;;7.97;;
81221;SDS011;70691;52.492;13.420;2023-10-13T07:25:52;12.07;;;6.88;;
81221;SDS011;70691;52.492;13.420;2023-10-13T07:28:28;13.27;;;6.40;;
81221;SDS011;70691;52.492;13.420;2023-10-13T07:31:11;9.25;;;5.82;;
81221;SDS011;70691;52.492;13.420;2023-10-13T07:33:38;25.63;;;7.90;;
81221;SDS011;70691;52.492;13.420;2023-10-13T07:36:07;13.65;;;7.53;;
81221;SDS011;70691;52.492;13.420;2023-10-13T07:38:40;10.98;;;6.15;;
81221;SDS011;70691;52.492;13.420;2023-10-13T07:41:07;16.50;;;7.35;;
81221;SDS011;70691;52.492;13.420;2023-10-13T07:43:40;8.95;;;6.05;;
81221;SDS011;70691;52.492;13.420;2023-10-13T07:46:06;11.63;;;6.25;;
81221;SDS011;70691;52.492;13.420;2023-10-13T07:48:37;10.73;;;5.90;;
81221;SDS011;70691;52.492;13.420;2023-10-13T07:51:06;10.95;;;6.18;;
81221;SDS011;70691;52.492;13.420;2023-10-13T07:53:39;10.43;;;5.55;;
81221;SDS011;70691;52.492;13.420;2023-10-13T07:56:11;9.40;;;5.72;;
81221;SDS011;70691;52.492;13.420;2023-10-13T07:58:37;11.10;;;5.85;;
81221;SDS011;70691;52.492;13.420;2023-10-13T08:01:25;9.30;;;5.15;;
81221;SDS011;70691;52.492;13.420;2023-10-13T08:03:51;12.93;;;5.88;;
81221;SDS011;70691;52.492;13.420;2023-10-13T08:06:29;12.35;;;6.25;;
81221;SDS011;70691;52.492;13.420;2023-10-13T08:08:56;8.57;;;4.82;;
81221;SDS011;70691;52.492;13.420;2023-10-13T08:11:41;13.27;;;5.85;;
81221;SDS011;70691;52.492;13.420;2023-10-13T08:14:07;13.40;;;5.40;;
81221;SDS011;70691;52.492;13.420;2023-10-13T08:16:47;11.85;;;5.57;;
81221;SDS011;70691;52.492;13.420;2023-10-13T08:19:23;10.02;;;5.55;;
81221;SDS011;70691;52.492;13.420;2023-10-13T08:21:57;8.57;;;6.13;;
81221;SDS011;70691;52.492;13.420;2023-10-13T08:24:27;11.05;;;5.40;;
81221;SDS011;70691;52.492;13.420;2023-10-13T08:26:53;10.18;;;5.70;;
81221;SDS011;70691;52.492;13.420;2023-10-13T08:29:37;13.20;;;6.47;;
81221;SDS011;70691;52.492;13.420;2023-10-13T08:32:21;12.25;;;5.68;;
81221;SDS011;70691;52.492;13.420;2023-10-13T08:34:52;8.38;;;5.40;;
81221;SDS011;70691;52.492;13.420;2023-10-13T08:37:18;7.85;;;4.78;;
81221;SDS011;70691;52.492;13.420;2023-10-13T08:39:50;14.33;;;5.53;;
81221;SDS011;70691;52.492;13.420;2023-10-13T08:42:28;9.80;;;5.15;;
81221;SDS011;70691;52.492;13.420;2023-10-13T08:45:22;9.55;;;5.13;;
81221;SDS011;70691;52.492;13.420;2023-10-13T08:53:22;11.70;;;6.07;;
81221;SDS011;70691;52.492;13.420;2023-10-13T08:56:08;11.23;;;5.72;;
81221;SDS011;70691;52.492;13.420;2023-10-13T08:58:46;11.02;;;6.28;;
81221;SDS011;70691;52.492;13.420;2023-10-13T09:01:19;9.15;;;5.63;;
81221;SDS011;70691;52.492;13.420;2023-10-13T09:04:13;12.10;;;5.60;;
81221;SDS011;70691;52.492;13.420;2023-10-13T09:06:46;10.32;;;5.50;;
81221;SDS011;70691;52.492;13.420;2023-10-13T09:09:25;8.43;;;4.57;;
81221;SDS011;70691;52.492;13.420;2023-10-13T09:14:52;9.05;;;4.97;;
81221;SDS011;70691;52.492;13.420;2023-10-13T09:17:22;8.25;;;4.88;;
81221;SDS011;70691;52.492;13.420;2023-10-13T09:20:01;10.80;;;5.35;;
81221;SDS011;70691;52.492;13.420;2023-10-13T09:22:50;8.30;;;5.03;;
81221;SDS011;70691;52.492;13.420;2023-10-13T09:25:47;7.15;;;4.50;;
81221;SDS011;70691;52.492;13.420;2023-10-13T09:28:38;8.13;;;4.38;;
81221;SDS011;70691;52.492;13.420;2023-10-13T09:31:04;9.25;;;4.47;;
81221;SDS011;70691;52.492;13.420;2023-10-13T09:33:35;9.15;;;5.03;;
81221;SDS011;70691;52.492;13.420;2023-10-13T09:36:05;8.07;;;5.18;;
81221;SDS011;70691;52.492;13.420;2023-10-13T09:38:38;12.68;;;5.50;;
81221;SDS011;70691;52.492;13.420;2023-10-13T09:41:07;12.40;;;6.13;;
81221;SDS011;70691;52.492;13.420;2023-10-13T09:43:52;10.60;;;5.40;;
81221;SDS011;70691;52.492;13.420;2023-10-13T09:46:22;8.95;;;5.28;;
81221;SDS011;70691;52.492;13.420;2023-10-13T09:49:04;10.43;;;5.85;;
81221;SDS011;70691;52.492;13.420;2023-10-13T09:51:40;8.40;;;4.40;;
81221;SDS011;70691;52.492;13.420;2023-10-13T09:54:20;10.77;;;5.07;;
81221;SDS011;70691;52.492;13.420;2023-10-13T09:57:17;16.80;;;5.57;;
81221;SDS011;70691;52.492;13.420;2023-10-13T09:59:50;8.90;;;5.70;;
81221;SDS011;70691;52.492;13.420;2023-10-13T10:02:23;9.43;;;5.85;;
81221;SDS011;70691;52.492;13.420;2023-10-13T10:04:53;10.77;;;5.57;;
81221;SDS011;70691;52.492;13.420;2023-10-13T10:07:24;9.98;;;5.35;;
81221;SDS011;70691;52.492;13.420;2023-10-13T10:09:57;11.00;;;5.95;;
81221;SDS011;70691;52.492;13.420;2023-10-13T10:12:41;10.70;;;6.20;;
81221;SDS011;70691;52.492;13.420;2023-10-13T10:18:17;13.18;;;5.15;;
81221;SDS011;70691;52.492;13.420;2023-10-13T10:21:02;9.98;;;5.75;;
81221;SDS011;70691;52.492;13.420;2023-10-13T10:26:15;8.02;;;5.00;;
81221;SDS011;70691;52.492;13.420;2023-10-13T10:28:50;7.72;;;5.07;;
81221;SDS011;70691;52.492;13.420;2023-10-13T10:31:15;6.65;;;4.13;;
81221;SDS011;70691;52.492;13.420;2023-10-13T10:33:45;11.32;;;4.78;;
81221;SDS011;70691;52.492;13.420;2023-10-13T10:36:17;8.65;;;5.10;;
81221;SDS011;70691;52.492;13.420;2023-10-13T10:38:55;9.80;;;5.25;;
81221;SDS011;70691;52.492;13.420;2023-10-13T10:43:55;8.38;;;4.90;;
81221;SDS011;70691;52.492;13.420;2023-10-13T10:46:27;7.88;;;5.07;;
81221;SDS011;70691;52.492;13.420;2023-10-13T10:48:56;11.27;;;4.70;;
81221;SDS011;70691;52.492;13.420;2023-10-13T10:51:26;9.65;;;4.10;;
81221;SDS011;70691;52.492;13.420;2023-10-13T10:53:58;9.50;;;4.63;;
81221;SDS011;70691;52.492;13.420;2023-10-13T10:56:36;10.65;;;6.10;;
81221;SDS011;70691;52.492;13.420;2023-10-13T10:59:06;9.50;;;5.32;;
81221;SDS011;70691;52.492;13.420;2023-10-13T11:01:45;9.25;;;4.78;;
81221;SDS011;70691;52.492;13.420;2023-10-13T11:04:17;12.02;;;6.60;;
81221;SDS011;70691;52.492;13.420;2023-10-13T11:06:56;11.27;;;5.55;;
81221;SDS011;70691;52.492;13.420;2023-10-13T11:09:41;12.63;;;5.22;;
81221;SDS011;70691;52.492;13.420;2023-10-13T11:12:09;9.10;;;5.70;;
81221;SDS011;70691;52.492;13.420;2023-10-13T11:17:58;9.77;;;4.20;;
81221;SDS011;70691;52.492;13.420;2023-10-13T11:20:24;11.60;;;5.05;;
81221;SDS011;70691;52.492;13.420;2023-10-13T11:22:58;12.10;;;5.47;;
81221;SDS011;70691;52.492;13.420;2023-10-13T11:28:16;6.78;;;5.20;;
81221;SDS011;70691;52.492;13.420;2023-10-13T11:30:43;8.90;;;3.70;;
81221;SDS011;70691;52.492;13.420;2023-10-13T11:33:14;9.95;;;4.75;;
81221;SDS011;70691;52.492;13.420;2023-10-13T11:35:43;11.82;;;4.13;;
81221;SDS011;70691;52.492;13.420;2023-10-13T11:38:22;9.63;;;5.55;;
81221;SDS011;70691;52.492;13.420;2023-10-13T11:43:34;15.95;;;5.28;;
81221;SDS011;70691;52.492;13.420;2023-10-13T11:48:58;8.23;;;4.75;;
81221;SDS011;70691;52.492;13.420;2023-10-13T11:51:30;11.57;;;5.68;;
81221;SDS011;70691;52.492;13.420;2023-10-13T11:53:57;8.07;;;4.85;;
81221;SDS011;70691;52.492;13.420;2023-10-13T11:56:23;10.50;;;5.15;;
81221;SDS011;70691;52.492;13.420;2023-10-13T11:58:50;9.20;;;5.22;;
81221;SDS011;70691;52.492;13.420;2023-10-13T12:01:16;7.45;;;4.43;;
81221;SDS011;70691;52.492;13.420;2023-10-13T12:03:46;17.25;;;6.32;;
81221;SDS011;70691;52.492;13.420;2023-10-13T12:06:52;8.50;;;4.53;;
81221;SDS011;70691;52.492;13.420;2023-10-13T12:09:36;7.32;;;4.68;;
81221;SDS011;70691;52.492;13.420;2023-10-13T12:12:22;15.82;;;4.80;;
81221;SDS011;70691;52.492;13.420;2023-10-13T12:14:48;9.85;;;4.88;;
81221;SDS011;70691;52.492;13.420;2023-10-13T12:17:20;10.77;;;4.65;;
81221;SDS011;70691;52.492;13.420;2023-10-13T12:19:52;9.30;;;5.03;;
81221;SDS011;70691;52.492;13.420;2023-10-13T12:22:22;13.38;;;5.30;;
81221;SDS011;70691;52.492;13.420;2023-10-13T12:25:00;9.38;;;4.53;;
81221;SDS011;70691;52.492;13.420;2023-10-13T12:30:10;11.80;;;5.30;;
81221;SDS011;70691;52.492;13.420;2023-10-13T12:32:39;6.28;;;4.15;;
81221;SDS011;70691;52.492;13.420;2023-10-13T12:35:10;9.60;;;4.85;;
81221;SDS011;70691;52.492;13.420;2023-10-13T12:37:35;11.50;;;5.15;;
81221;SDS011;70691;52.492;13.420;2023-10-13T12:40:08;9.38;;;4.90;;
81221;SDS011;70691;52.492;13.420;2023-10-13T12:42:54;12.52;;;4.85;;
81221;SDS011;70691;52.492;13.420;2023-10-13T12:45:56;13.10;;;5.20;;
81221;SDS011;70691;52.492;13.420;2023-10-13T12:48:40;13.52;;;4.80;;
81221;SDS011;70691;52.492;13.420;2023-10-13T12:51:24;10.90;;;5.38;;
81221;SDS011;70691;52.492;13.420;2023-10-13T12:54:00;8.98;;;4.65;;
81221;SDS011;70691;52.492;13.420;2023-10-13T12:56:52;17.17;;;5.07;;
81221;SDS011;70691;52.492;13.420;2023-10-13T12:59:22;8.32;;;4.15;;
81221;SDS011;70691;52.492;13.420;2023-10-13T13:04:18;11.35;;;4.40;;
81221;SDS011;70691;52.492;13.420;2023-10-13T13:06:45;10.50;;;5.13;;
81221;SDS011;70691;52.492;13.420;2023-10-13T13:09:14;12.98;;;5.07;;
81221;SDS011;70691;52.492;13.420;2023-10-13T13:11:40;10.80;;;5.13;;
81221;SDS011;70691;52.492;13.420;2023-10-13T13:14:06;13.45;;;5.63;;
81221;SDS011;70691;52.492;13.420;2023-10-13T13:16:35;12.18;;;4.97;;
81221;SDS011;70691;52.492;13.420;2023-10-13T13:19:04;14.70;;;5.47;;
81221;SDS011;70691;52.492;13.420;2023-10-13T13:21:38;8.60;;;4.50;;
81221;SDS011;70691;52.492;13.420;2023-10-13T13:24:04;13.30;;;4.82;;
81221;SDS011;70691;52.492;13.420;2023-10-13T13:26:36;9.52;;;4.32;;
81221;SDS011;70691;52.492;13.420;2023-10-13T13:29:05;10.18;;;5.00;;
81221;SDS011;70691;52.492;13.420;2023-10-13T13:31:34;13.30;;;6.10;;
81221;SDS011;70691;52.492;13.420;2023-10-13T13:34:06;10.05;;;5.28;;
81221;SDS011;70691;52.492;13.420;2023-10-13T13:36:35;13.52;;;5.38;;
81221;SDS011;70691;52.492;13.420;2023-10-13T13:39:01;6.60;;;3.80;;
81221;SDS011;70691;52.492;13.420;2023-10-13T13:41:27;9.20;;;5.22;;
81221;SDS011;70691;52.492;13.420;2023-10-13T13:43:53;10.38;;;4.38;;
81221;SDS011;70691;52.492;13.420;2023-10-13T13:46:25;13.13;;;5.97;;
81221;SDS011;70691;52.492;13.420;2023-10-13T13:48:57;16.02;;;4.72;;
81221;SDS011;70691;52.492;13.420;2023-10-13T13:51:24;14.63;;;4.93;;
81221;SDS011;70691;52.492;13.420;2023-10-13T13:53:54;9.75;;;4.72;;
81221;SDS011;70691;52.492;13.420;2023-10-13T13:56:21;9.32;;;4.65;;
81221;SDS011;70691;52.492;13.420;2023-10-13T13:58:50;13.73;;;5.10;;
81221;SDS011;70691;52.492;13.420;2023-10-13T14:01:16;9.02;;;4.15;;
81221;SDS011;70691;52.492;13.420;2023-10-13T14:03:52;17.48;;;5.10;;
81221;SDS011;70691;52.492;13.420;2023-10-13T14:06:22;6.13;;;3.97;;
81221;SDS011;70691;52.492;13.420;2023-10-13T14:08:50;8.70;;;4.35;;
81221;SDS011;70691;52.492;13.420;2023-10-13T14:11:19;17.83;;;5.00;;
81221;SDS011;70691;52.492;13.420;2023-10-13T14:14:11;12.88;;;4.88;;
81221;SDS011;70691;52.492;13.420;2023-10-13T14:16:39;13.77;;;4.55;;
81221;SDS011;70691;52.492;13.420;2023-10-13T14:19:12;11.02;;;4.13;;
81221;SDS011;70691;52.492;13.420;2023-10-13T14:21:44;15.18;;;5.28;;
81221;SDS011;70691;52.492;13.420;2023-10-13T14:24:18;18.70;;;5.05;;
81221;SDS011;70691;52.492;13.420;2023-10-13T14:26:52;13.65;;;4.20;;
81221;SDS011;70691;52.492;13.420;2023-10-13T14:29:21;13.68;;;5.13;;
81221;SDS011;70691;52.492;13.420;2023-10-13T14:31:51;10.00;;;4.80;;
81221;SDS011;70691;52.492;13.420;2023-10-13T14:34:17;12.68;;;5.32;;
81221;SDS011;70691;52.492;13.420;2023-10-13T14:36:46;12.32;;;4.60;;
81221;SDS011;70691;52.492;13.420;2023-10-13T14:39:13;13.20;;;4.85;;
81221;SDS011;70691;52.492;13.420;2023-10-13T14:41:40;13.60;;;4.13;;
81221;SDS011;70691;52.492;13.420;2023-10-13T14:44:06;12.57;;;4.78;;
81221;SDS011;70691;52.492;13.420;2023-10-13T14:46:32;10.18;;;4.80;;
81221;SDS011;70691;52.492;13.420;2023-10-13T14:49:04;22.75;;;5.00;;
81221;SDS011;70691;52.492;13.420;2023-10-13T14:51:30;10.68;;;4.88;;
81221;SDS011;70691;52.492;13.420;2023-10-13T14:54:04;9.32;;;5.70;;
81221;SDS011;70691;52.492;13.420;2023-10-13T14:56:30;16.65;;;4.80;;
81221;SDS011;70691;52.492;13.420;2023-10-13T14:58:55;11.05;;;4.60;;
81221;SDS011;70691;52.492;13.420;2023-10-13T15:01:21;13.80;;;6.22;;
81221;SDS011;70691;52.492;13.420;2023-10-13T15:03:51;8.50;;;5.18;;
81221;SDS011;70691;52.492;13.420;2023-10-13T15:06:23;11.05;;;4.65;;
81221;SDS011;70691;52.492;13.420;2023-10-13T15:08:53;13.82;;;5.32;;
81221;SDS011;70691;52.492;13.420;2023-10-13T15:11:21;16.25;;;6.20;;
81221;SDS011;70691;52.492;13.420;2023-10-13T15:13:51;10.60;;;5.55;;
81221;SDS011;70691;52.492;13.420;2023-10-13T15:16:22;12.88;;;6.15;;
81221;SDS011;70691;52.492;13.420;2023-10-13T15:18:49;12.48;;;4.35;;
81221;SDS011;70691;52.492;13.420;2023-10-13T15:21:26;12.35;;;4.72;;
81221;SDS011;70691;52.492;13.420;2023-10-13T15:24:02;10.75;;;4.40;;
81221;SDS011;70691;52.492;13.420;2023-10-13T15:26:29;16.10;;;5.10;;
81221;SDS011;70691;52.492;13.420;2023-10-13T15:28:57;11.75;;;4.97;;
81221;SDS011;70691;52.492;13.420;2023-10-13T15:33:52;20.67;;;7.10;;
81221;SDS011;70691;52.492;13.420;2023-10-13T15:36:22;19.88;;;6.85;;
81221;SDS011;70691;52.492;13.420;2023-10-13T15:38:48;13.70;;;5.55;;
81221;SDS011;70691;52.492;13.420;2023-10-13T15:41:23;11.77;;;5.43;;
81221;SDS011;70691;52.492;13.420;2023-10-13T15:43:54;16.83;;;6.07;;
81221;SDS011;70691;52.492;13.420;2023-10-13T15:46:23;15.05;;;5.72;;
81221;SDS011;70691;52.492;13.420;2023-10-13T15:48:52;10.63;;;5.67;;
81221;SDS011;70691;52.492;13.420;2023-10-13T15:51:18;15.13;;;5.38;;
81221;SDS011;70691;52.492;13.420;2023-10-13T15:53:45;14.90;;;5.57;;